createdAt,value
2023-03-07T00:01:09.356Z,9.00
2023-03-07T00:03:36.966Z,8.47
2023-03-07T00:06:08.575Z,9.27
2023-03-07T00:08:35.529Z,9.27
2023-03-07T00:11:03.111Z,7.93
2023-03-07T00:13:31.684Z,7.67
2023-03-07T00:16:02.968Z,6.90
2023-03-07T00:18:29.870Z,7.90
2023-03-07T00:21:00.489Z,7.97
2023-03-07T00:23:27.224Z,6.60
2023-03-07T00:26:04.452Z,6.63
2023-03-07T00:28:31.482Z,8.00
2023-03-07T00:31:02.172Z,7.40
2023-03-07T00:33:29.456Z,6.57
2023-03-07T00:36:00.251Z,6.53
2023-03-07T00:38:28.061Z,7.40
2023-03-07T00:40:58.688Z,6.70
2023-03-07T00:43:25.343Z,6.57
2023-03-07T00:45:52.115Z,7.43
2023-03-07T00:48:18.956Z,7.23
2023-03-07T00:50:45.921Z,7.30
2023-03-07T00:53:13.060Z,6.53
2023-03-07T00:55:39.767Z,6.47
2023-03-07T00:58:06.565Z,6.17
2023-03-07T01:00:34.135Z,7.10
2023-03-07T01:03:02.238Z,6.73
2023-03-07T01:05:29.025Z,5.57
2023-03-07T01:07:55.819Z,5.70
2023-03-07T01:10:22.577Z,7.40
2023-03-07T01:12:49.304Z,6.17
2023-03-07T01:15:16.152Z,5.67
2023-03-07T01:17:42.829Z,6.27
2023-03-07T01:20:10.231Z,6.47
2023-03-07T01:22:36.925Z,6.50
2023-03-07T01:25:05.597Z,6.43
2023-03-07T01:27:32.313Z,6.87
2023-03-07T01:29:59.178Z,6.43
2023-03-07T01:32:26.052Z,6.60
2023-03-07T01:34:52.824Z,7.00
2023-03-07T01:37:19.518Z,6.40
2023-03-07T01:39:47.008Z,6.90
2023-03-07T01:42:16.780Z,6.97
2023-03-07T01:44:58.884Z,7.27
2023-03-07T01:47:27.766Z,7.03
2023-03-07T01:49:54.668Z,7.03
2023-03-07T01:52:24.061Z,6.50
2023-03-07T01:55:02.170Z,7.10
2023-03-07T01:57:32.277Z,8.27
2023-03-07T02:00:00.328Z,7.97
2023-03-07T02:02:27.884Z,7.60
2023-03-07T02:04:54.668Z,7.43
2023-03-07T02:07:22.696Z,7.43
2023-03-07T02:09:50.693Z,7.07
2023-03-07T02:12:17.382Z,7.37
2023-03-07T02:14:45.200Z,6.93
2023-03-07T02:17:12.534Z,7.27
2023-03-07T02:19:48.970Z,7.13
2023-03-07T02:22:17.757Z,7.73
2023-03-07T02:24:47.513Z,7.27
2023-03-07T02:27:14.847Z,6.53
2023-03-07T02:29:42.208Z,8.43
2023-03-07T02:32:09.428Z,7.57
2023-03-07T02:34:36.568Z,7.93
2023-03-07T02:37:16.469Z,8.17
2023-03-07T02:39:44.291Z,7.00
2023-03-07T02:42:14.437Z,7.37
2023-03-07T02:44:55.430Z,6.70
2023-03-07T02:47:22.137Z,7.57
2023-03-07T02:49:48.854Z,7.27
2023-03-07T02:52:15.926Z,6.80
2023-03-07T02:54:42.642Z,7.70
2023-03-07T02:57:11.205Z,7.53
2023-03-07T02:59:38.016Z,7.77
2023-03-07T03:02:04.940Z,8.07
2023-03-07T03:04:31.720Z,8.33
2023-03-07T03:06:59.029Z,7.47
2023-03-07T03:09:25.731Z,7.87
2023-03-07T03:11:52.380Z,6.60
2023-03-07T03:14:22.190Z,7.90
2023-03-07T03:16:51.864Z,7.13
2023-03-07T03:19:18.548Z,7.97
2023-03-07T03:21:45.201Z,7.30
2023-03-07T03:24:12.118Z,8.97
2023-03-07T03:26:39.110Z,8.43
2023-03-07T03:29:06.359Z,10.33
2023-03-07T03:31:33.529Z,8.40
2023-03-07T03:34:01.368Z,8.27
2023-03-07T03:36:29.397Z,10.13
2023-03-07T03:39:01.372Z,9.17
2023-03-07T03:41:29.239Z,8.53
2023-03-07T03:43:57.576Z,10.50
2023-03-07T03:46:25.725Z,10.90
2023-03-07T03:48:55.866Z,10.67
2023-03-07T03:51:25.746Z,10.20
2023-03-07T03:53:53.869Z,10.57
2023-03-07T03:56:22.659Z,10.03
2023-03-07T03:58:50.188Z,10.00
2023-03-07T04:01:17.677Z,9.67
2023-03-07T04:03:45.772Z,10.37
2023-03-07T04:06:17.073Z,10.00
2023-03-07T04:08:44.447Z,11.07
2023-03-07T04:11:11.997Z,11.53
2023-03-07T04:13:39.085Z,11.83
2023-03-07T04:16:06.109Z,11.40
2023-03-07T04:18:34.318Z,9.80
2023-03-07T04:21:01.533Z,9.93
2023-03-07T04:23:28.950Z,9.63
2023-03-07T04:25:56.662Z,10.90
2023-03-07T04:28:25.225Z,10.63
2023-03-07T04:30:53.869Z,8.90
2023-03-07T04:33:20.696Z,9.13
2023-03-07T04:35:48.788Z,9.73
2023-03-07T04:38:15.975Z,10.43
2023-03-07T04:40:42.685Z,10.37
2023-03-07T04:43:10.906Z,10.57
2023-03-07T04:45:38.825Z,10.07
2023-03-07T04:48:05.756Z,10.90
2023-03-07T04:50:33.906Z,10.57
2023-03-07T04:53:01.129Z,10.17
2023-03-07T04:55:28.043Z,9.37
2023-03-07T04:57:54.803Z,9.77
2023-03-07T05:00:21.452Z,10.43
2023-03-07T05:02:49.888Z,10.47
2023-03-07T05:05:18.007Z,10.37
2023-03-07T05:07:45.314Z,10.27
2023-03-07T05:10:12.916Z,10.70
2023-03-07T05:12:39.833Z,9.43
2023-03-07T05:15:07.885Z,11.00
2023-03-07T05:17:34.535Z,11.53
2023-03-07T05:20:01.275Z,10.87
2023-03-07T05:22:28.372Z,11.37
2023-03-07T05:24:55.177Z,12.03
2023-03-07T05:27:22.077Z,10.07
2023-03-07T05:29:48.715Z,10.50
2023-03-07T05:32:15.722Z,10.83
2023-03-07T05:34:43.747Z,10.97
2023-03-07T05:37:10.530Z,12.03
2023-03-07T05:39:37.230Z,11.37
2023-03-07T05:42:04.337Z,10.53
2023-03-07T05:44:34.023Z,10.67
2023-03-07T05:47:01.850Z,10.90
2023-03-07T05:49:28.705Z,10.50
2023-03-07T05:51:55.526Z,11.00
2023-03-07T05:54:22.632Z,11.33
2023-03-07T05:56:49.358Z,11.67
2023-03-07T05:59:16.149Z,11.77
2023-03-07T06:01:44.802Z,11.10
2023-03-07T06:04:12.566Z,11.93
2023-03-07T06:06:39.497Z,11.40
2023-03-07T06:09:06.683Z,12.67
2023-03-07T06:11:34.068Z,11.70
2023-03-07T06:14:00.828Z,11.43
2023-03-07T06:16:28.851Z,12.43
2023-03-07T06:18:56.421Z,12.07
2023-03-07T06:21:23.480Z,11.27
2023-03-07T06:23:50.671Z,8.90
2023-03-07T06:26:20.381Z,11.90
2023-03-07T06:28:51.016Z,10.67
2023-03-07T06:31:18.857Z,11.57
2023-03-07T06:33:47.443Z,10.13
2023-03-07T06:36:16.240Z,11.40
2023-03-07T06:38:46.074Z,10.87
2023-03-07T06:41:13.113Z,10.53
2023-03-07T06:43:40.413Z,8.93
2023-03-07T06:46:07.244Z,10.53
2023-03-07T06:48:38.151Z,10.97
2023-03-07T06:51:10.263Z,10.03
2023-03-07T06:53:41.177Z,8.63
2023-03-07T06:56:08.476Z,10.10
2023-03-07T06:58:36.796Z,11.60
2023-03-07T07:01:03.868Z,10.70
2023-03-07T07:03:34.108Z,12.00
2023-03-07T07:06:03.162Z,11.00
2023-03-07T07:08:30.768Z,10.47
2023-03-07T07:10:58.553Z,9.57
2023-03-07T07:13:25.833Z,10.93
2023-03-07T07:15:53.552Z,10.23
2023-03-07T07:18:20.728Z,9.83
2023-03-07T07:20:53.442Z,11.07
2023-03-07T07:23:20.771Z,9.03
2023-03-07T07:25:48.043Z,10.00
2023-03-07T07:28:14.774Z,9.97
2023-03-07T07:30:41.549Z,7.97
2023-03-07T07:33:08.394Z,9.30
2023-03-07T07:35:35.083Z,8.03
2023-03-07T07:38:01.769Z,9.60
2023-03-07T07:40:28.503Z,7.70
2023-03-07T07:42:55.404Z,7.80
2023-03-07T07:45:44.673Z,8.20
2023-03-07T07:48:15.121Z,8.70
2023-03-07T07:50:42.011Z,8.30
2023-03-07T07:53:09.356Z,7.30
2023-03-07T07:55:36.029Z,8.33
2023-03-07T07:58:02.635Z,7.87
2023-03-07T08:00:29.749Z,7.33
2023-03-07T08:02:56.478Z,9.17
2023-03-07T08:05:23.148Z,8.07
2023-03-07T08:07:50.523Z,8.80
2023-03-07T08:10:18.074Z,6.40
2023-03-07T08:12:45.264Z,7.53
2023-03-07T08:15:12.255Z,8.67
2023-03-07T08:17:38.942Z,8.60
2023-03-07T08:20:08.421Z,7.07
2023-03-07T08:22:35.602Z,7.73
2023-03-07T08:25:02.279Z,7.90
2023-03-07T08:27:28.916Z,7.40
2023-03-07T08:29:55.532Z,7.30
2023-03-07T08:32:22.672Z,9.50
2023-03-07T08:34:49.798Z,9.13
2023-03-07T08:37:20.594Z,6.90
2023-03-07T08:39:48.077Z,8.77
2023-03-07T08:42:14.766Z,8.23
2023-03-07T08:44:41.419Z,8.70
2023-03-07T08:47:08.660Z,8.17
2023-03-07T08:49:35.678Z,8.87
2023-03-07T08:52:02.338Z,9.50
2023-03-07T08:54:29.319Z,8.57
2023-03-07T08:56:55.971Z,8.93
2023-03-07T08:59:22.606Z,8.50
2023-03-07T09:01:49.476Z,8.77
2023-03-07T09:04:16.100Z,9.20
2023-03-07T09:06:42.736Z,9.70
2023-03-07T09:09:09.380Z,9.07
2023-03-07T09:11:36.267Z,8.17
2023-03-07T09:14:02.894Z,8.50
2023-03-07T09:16:29.795Z,9.23
2023-03-07T09:18:56.548Z,8.97
2023-03-07T09:21:23.699Z,8.77
2023-03-07T09:23:50.773Z,9.20
2023-03-07T09:26:17.525Z,9.90
2023-03-07T09:28:44.365Z,8.90
2023-03-07T09:31:12.504Z,10.00
2023-03-07T09:33:40.278Z,7.83
2023-03-07T09:36:07.813Z,8.70
2023-03-07T09:38:34.668Z,9.60
2023-03-07T09:41:07.638Z,7.70
2023-03-07T09:43:52.906Z,7.83
2023-03-07T09:46:47.401Z,8.50
2023-03-07T09:49:24.274Z,8.33
2023-03-07T09:51:52.406Z,7.80
2023-03-07T09:54:19.064Z,7.10
2023-03-07T09:56:57.120Z,7.67
2023-03-07T09:59:29.760Z,7.47
2023-03-07T10:02:01.144Z,8.20
2023-03-07T10:04:33.185Z,8.57
2023-03-07T10:07:02.243Z,7.77
2023-03-07T10:09:29.245Z,7.83
2023-03-07T10:12:05.982Z,8.87
2023-03-07T10:14:35.384Z,7.67
2023-03-07T10:17:05.242Z,7.93
2023-03-07T10:19:35.056Z,7.70
2023-03-07T10:22:20.154Z,8.97
2023-03-07T10:24:50.719Z,8.17
2023-03-07T10:27:17.508Z,7.40
2023-03-07T10:29:51.989Z,8.60
2023-03-07T10:32:22.363Z,7.23
2023-03-07T10:34:56.079Z,8.47
2023-03-07T10:37:27.062Z,8.90
2023-03-07T10:39:54.505Z,7.60
2023-03-07T10:42:22.697Z,8.30
2023-03-07T10:44:51.050Z,7.73
2023-03-07T10:47:21.854Z,8.30
2023-03-07T10:49:50.324Z,7.13
2023-03-07T10:52:26.376Z,8.10
2023-03-07T10:54:53.356Z,9.40
2023-03-07T10:57:26.397Z,9.13
2023-03-07T10:59:53.035Z,7.87
2023-03-07T11:02:22.446Z,8.43
2023-03-07T11:04:49.120Z,8.70
2023-03-07T11:07:28.469Z,7.53
2023-03-07T11:09:56.273Z,8.17
2023-03-07T11:12:24.714Z,7.10
2023-03-07T11:14:51.425Z,9.20
2023-03-07T11:17:27.170Z,8.97
2023-03-07T11:19:57.251Z,7.03
2023-03-07T11:22:34.313Z,8.40
2023-03-07T11:25:13.181Z,8.67
2023-03-07T11:27:47.373Z,8.13
2023-03-07T11:30:19.038Z,9.43
2023-03-07T11:32:52.020Z,8.40
2023-03-07T11:35:23.907Z,8.93
2023-03-07T11:37:55.658Z,8.80
2023-03-07T11:40:27.822Z,9.90
2023-03-07T11:43:00.649Z,8.93
2023-03-07T11:45:27.347Z,8.90
2023-03-07T11:48:11.422Z,7.97
2023-03-07T11:50:39.725Z,8.93
2023-03-07T11:53:15.532Z,9.80
2023-03-07T11:55:53.853Z,8.53
2023-03-07T11:58:20.471Z,9.47
2023-03-07T12:00:59.452Z,9.57
2023-03-07T12:03:26.094Z,8.40
2023-03-07T12:06:12.146Z,8.83
2023-03-07T12:08:57.198Z,9.97
2023-03-07T12:11:23.793Z,9.67
2023-03-07T12:13:54.630Z,0.13
2023-03-07T12:16:40.178Z,0.20
2023-03-07T12:19:27.362Z,0.20
2023-03-07T12:22:06.289Z,0.20
2023-03-07T12:24:40.037Z,0.20
2023-03-07T12:27:39.386Z,0.20
2023-03-07T12:30:16.573Z,0.20
2023-03-07T12:32:43.543Z,0.20
2023-03-07T12:35:16.458Z,0.20
2023-03-07T12:37:47.193Z,0.40
2023-03-07T12:40:13.934Z,0.10
2023-03-07T12:42:44.481Z,0.20
2023-03-07T12:45:12.489Z,0.20
2023-03-07T12:47:40.072Z,0.30
2023-03-07T12:50:12.863Z,0.70
2023-03-07T12:52:42.348Z,0.10
2023-03-07T12:55:30.854Z,0.13
2023-03-07T12:58:04.088Z,0.20
2023-03-07T13:00:31.193Z,0.13
2023-03-07T13:03:02.074Z,0.20
2023-03-07T13:05:29.244Z,0.30
2023-03-07T13:07:56.483Z,0.40
2023-03-07T13:10:24.279Z,0.10
2023-03-07T13:12:52.147Z,0.30
2023-03-07T13:15:19.263Z,0.60
2023-03-07T13:17:45.929Z,1.07
2023-03-07T13:20:15.690Z,0.20
2023-03-07T13:22:43.097Z,0.10
2023-03-07T13:25:29.275Z,0.20
2023-03-07T13:27:59.888Z,0.20
2023-03-07T13:30:28.902Z,0.20
2023-03-07T13:32:56.837Z,0.20
2023-03-07T13:35:37.786Z,0.10
2023-03-07T13:38:10.546Z,0.20
2023-03-07T13:40:37.726Z,0.10
2023-03-07T13:43:19.972Z,0.20
2023-03-07T13:45:57.541Z,0.20
2023-03-07T13:48:28.301Z,0.10
2023-03-07T13:50:55.017Z,0.20
2023-03-07T13:53:28.534Z,0.10
2023-03-07T13:56:10.574Z,0.10
2023-03-07T13:58:43.208Z,0.17
2023-03-07T14:01:33.052Z,0.20
2023-03-07T14:03:59.763Z,0.10
2023-03-07T14:06:46.097Z,0.10
2023-03-07T14:09:14.465Z,0.20
2023-03-07T14:11:47.150Z,0.20
2023-03-07T14:14:32.430Z,0.20
2023-03-07T14:17:05.937Z,0.10
2023-03-07T14:19:35.543Z,0.20
2023-03-07T14:22:05.566Z,0.20
2023-03-07T14:24:39.651Z,1.17
2023-03-07T14:27:12.201Z,0.20
2023-03-07T14:29:46.982Z,0.20
2023-03-07T14:32:46.658Z,0.10
2023-03-07T14:35:15.512Z,0.20
2023-03-07T14:37:43.881Z,0.10
2023-03-07T14:40:26.738Z,0.20
2023-03-07T14:43:11.879Z,0.20
2023-03-07T14:45:57.623Z,0.13
2023-03-07T14:48:48.689Z,0.20
2023-03-07T14:51:24.086Z,0.20
2023-03-07T14:53:55.174Z,0.20
2023-03-07T14:56:27.437Z,2.00
2023-03-07T14:58:55.930Z,0.20
2023-03-07T15:01:22.712Z,0.20
2023-03-07T15:03:50.742Z,0.17
2023-03-07T15:06:19.063Z,0.33
2023-03-07T15:08:46.813Z,0.10
2023-03-07T15:11:13.589Z,0.20
2023-03-07T15:13:40.236Z,0.30
2023-03-07T15:16:11.100Z,2.00
2023-03-07T15:18:39.631Z,0.20
2023-03-07T15:21:07.206Z,0.20
2023-03-07T15:23:34.584Z,0.20
2023-03-07T15:26:06.667Z,0.20
2023-03-07T15:28:42.736Z,0.20
2023-03-07T15:31:10.312Z,0.47
2023-03-07T15:33:37.139Z,0.20
2023-03-07T15:36:13.025Z,0.20
2023-03-07T15:38:49.856Z,0.10
2023-03-07T15:41:25.600Z,0.20
2023-03-07T15:44:04.375Z,0.30
2023-03-07T15:46:31.940Z,0.20
2023-03-07T15:48:58.959Z,0.40
2023-03-07T15:51:27.528Z,0.10
2023-03-07T15:53:56.123Z,0.20
2023-03-07T15:56:25.737Z,2.97
2023-03-07T15:58:56.224Z,0.30
2023-03-07T16:01:24.140Z,0.20
2023-03-07T16:03:58.302Z,0.20
2023-03-07T16:06:43.726Z,0.73
2023-03-07T16:09:14.544Z,0.10
2023-03-07T16:11:41.612Z,0.40
2023-03-07T16:14:29.152Z,0.10
2023-03-07T16:17:00.361Z,0.20
2023-03-07T16:19:27.299Z,0.10
2023-03-07T16:21:54.263Z,0.20
2023-03-07T16:24:20.920Z,0.20
2023-03-07T16:26:48.088Z,0.20
2023-03-07T16:29:19.698Z,0.20
2023-03-07T16:31:46.648Z,0.20
2023-03-07T16:34:15.074Z,0.13
2023-03-07T16:36:42.983Z,0.10
2023-03-07T16:39:10.809Z,0.20
2023-03-07T16:41:43.195Z,0.20
2023-03-07T16:44:15.215Z,0.20
2023-03-07T16:46:44.296Z,0.53
2023-03-07T16:49:16.248Z,0.20
2023-03-07T16:51:42.889Z,0.20
2023-03-07T16:54:09.871Z,0.20
2023-03-07T16:56:38.674Z,0.20
2023-03-07T16:59:06.094Z,0.10
2023-03-07T17:01:32.801Z,0.20
2023-03-07T17:04:00.260Z,0.20
2023-03-07T17:06:38.394Z,0.10
2023-03-07T17:09:06.343Z,0.30
2023-03-07T17:11:33.480Z,0.20
2023-03-07T17:14:02.372Z,0.20
2023-03-07T17:16:29.651Z,0.20
2023-03-07T17:18:57.270Z,0.20
2023-03-07T17:21:23.899Z,0.20
2023-03-07T17:23:50.543Z,0.20
2023-03-07T17:26:26.342Z,0.20
2023-03-07T17:28:53.461Z,0.20
2023-03-07T17:31:20.120Z,0.20
2023-03-07T17:33:46.961Z,0.27
2023-03-07T17:36:13.724Z,0.20
2023-03-07T17:38:40.419Z,0.20
2023-03-07T17:41:10.138Z,0.10
2023-03-07T17:43:36.745Z,0.20
2023-03-07T17:46:07.940Z,0.20
2023-03-07T17:48:36.049Z,0.10
2023-03-07T17:51:07.514Z,0.20
2023-03-07T17:53:35.012Z,0.20
2023-03-07T17:56:13.264Z,0.40
2023-03-07T17:58:40.772Z,0.20
2023-03-07T18:01:08.501Z,0.20
2023-03-07T18:03:35.657Z,0.20
2023-03-07T18:06:02.417Z,0.40
2023-03-07T18:08:29.201Z,0.20
2023-03-07T18:11:02.287Z,0.20
2023-03-07T18:13:28.844Z,0.20
2023-03-07T18:15:57.267Z,0.23
2023-03-07T18:18:24.292Z,0.20
2023-03-07T18:20:58.123Z,0.20
2023-03-07T18:23:25.081Z,0.10
2023-03-07T18:25:58.475Z,0.63
2023-03-07T18:28:26.223Z,0.20
2023-03-07T18:31:06.975Z,1.83
2023-03-07T18:33:35.025Z,0.10
2023-03-07T18:36:02.120Z,0.20
2023-03-07T18:38:29.312Z,0.20
2023-03-07T18:41:06.539Z,0.30
2023-03-07T18:43:33.597Z,0.20
2023-03-07T18:46:00.414Z,0.93
2023-03-07T18:48:27.001Z,0.10
2023-03-07T18:50:57.941Z,0.20
2023-03-07T18:53:24.821Z,0.20
2023-03-07T18:55:51.526Z,0.20
2023-03-07T18:58:18.275Z,0.20
2023-03-07T19:00:45.105Z,0.30
2023-03-07T19:03:12.007Z,0.10
2023-03-07T19:05:42.152Z,0.50
2023-03-07T19:08:08.817Z,0.20
2023-03-07T19:10:36.171Z,0.20
2023-03-07T19:13:03.011Z,0.20
2023-03-07T19:15:29.748Z,0.20
2023-03-07T19:17:56.492Z,0.20
2023-03-07T19:20:23.471Z,0.30
2023-03-07T19:22:51.637Z,0.20
2023-03-07T19:25:18.711Z,0.20
2023-03-07T19:27:45.554Z,0.20
2023-03-07T19:30:15.062Z,0.40
2023-03-07T19:32:41.871Z,0.20
2023-03-07T19:35:09.937Z,0.20
2023-03-07T19:37:36.818Z,0.20
2023-03-07T19:40:04.026Z,0.20
2023-03-07T19:42:30.663Z,0.20
2023-03-07T19:44:58.330Z,0.10
2023-03-07T19:47:26.605Z,0.20
2023-03-07T19:49:53.279Z,0.17
2023-03-07T19:52:21.221Z,0.63
2023-03-07T19:54:51.194Z,0.20
2023-03-07T19:57:21.797Z,0.10
2023-03-07T19:59:51.444Z,0.20
2023-03-07T20:02:18.808Z,0.30
2023-03-07T20:04:47.009Z,0.20
2023-03-07T20:07:14.113Z,0.20
2023-03-07T20:09:40.919Z,0.20
2023-03-07T20:12:15.411Z,0.20
2023-03-07T20:14:44.734Z,0.20
2023-03-07T20:17:11.616Z,0.20
2023-03-07T20:19:38.358Z,0.20
2023-03-07T20:22:05.550Z,0.20
2023-03-07T20:24:33.332Z,0.20
2023-03-07T20:27:01.379Z,0.20
2023-03-07T20:29:30.563Z,0.20
2023-03-07T20:31:57.765Z,0.20
2023-03-07T20:34:25.481Z,0.20
2023-03-07T20:36:52.156Z,0.20
2023-03-07T20:39:18.853Z,3.07
2023-03-07T20:41:45.936Z,5.10
2023-03-07T20:44:14.380Z,5.70
2023-03-07T20:46:41.507Z,5.10
2023-03-07T20:49:08.394Z,5.63
2023-03-07T20:51:36.033Z,5.23
2023-03-07T20:54:04.769Z,5.40
2023-03-07T20:56:32.157Z,5.70
2023-03-07T20:58:59.897Z,4.83
2023-03-07T21:01:27.710Z,4.80
2023-03-07T21:03:54.817Z,5.50
2023-03-07T21:06:21.632Z,5.27
2023-03-07T21:08:49.421Z,4.60
2023-03-07T21:11:17.501Z,4.80
2023-03-07T21:13:45.005Z,5.43
2023-03-07T21:16:13.344Z,5.00
2023-03-07T21:18:40.114Z,4.93
2023-03-07T21:21:08.326Z,5.10
2023-03-07T21:23:35.711Z,4.93
2023-03-07T21:26:03.770Z,5.10
2023-03-07T21:28:30.868Z,5.77
2023-03-07T21:31:00.833Z,6.13
2023-03-07T21:33:29.539Z,5.67
2023-03-07T21:35:56.643Z,5.40
2023-03-07T21:38:24.019Z,5.27
2023-03-07T21:40:50.856Z,4.97
2023-03-07T21:43:17.470Z,5.10
2023-03-07T21:45:44.197Z,4.90
2023-03-07T21:48:11.197Z,5.13
2023-03-07T21:50:41.853Z,4.53
2023-03-07T21:53:09.206Z,4.70
2023-03-07T21:55:35.925Z,4.80
2023-03-07T21:58:02.852Z,4.03
2023-03-07T22:00:30.262Z,4.63
2023-03-07T22:02:58.156Z,4.40
2023-03-07T22:05:25.048Z,4.27
2023-03-07T22:07:51.852Z,4.03
2023-03-07T22:10:19.479Z,4.33
2023-03-07T22:12:46.215Z,4.10
2023-03-07T22:15:13.057Z,4.63
2023-03-07T22:17:39.693Z,4.40
2023-03-07T22:20:07.674Z,4.70
2023-03-07T22:22:34.456Z,4.23
2023-03-07T22:25:01.328Z,4.27
2023-03-07T22:27:28.085Z,4.33
2023-03-07T22:29:54.780Z,4.57
2023-03-07T22:32:21.493Z,5.00
2023-03-07T22:34:50.247Z,4.63
2023-03-07T22:37:16.983Z,5.03
2023-03-07T22:39:43.620Z,4.93
2023-03-07T22:42:10.224Z,4.87
2023-03-07T22:44:37.142Z,4.97
2023-03-07T22:47:03.873Z,5.93
2023-03-07T22:49:30.656Z,6.40
2023-03-07T22:51:57.653Z,6.77
2023-03-07T22:54:24.478Z,6.80
2023-03-07T22:56:51.224Z,6.43
2023-03-07T22:59:19.024Z,5.83
2023-03-07T23:01:45.965Z,5.20
2023-03-07T23:04:13.096Z,5.07
2023-03-07T23:06:39.833Z,5.00
2023-03-07T23:09:07.559Z,4.40
2023-03-07T23:11:34.320Z,4.40
2023-03-07T23:14:02.131Z,4.10
2023-03-07T23:16:30.239Z,4.77
2023-03-07T23:18:58.107Z,4.07
2023-03-07T23:21:26.745Z,4.43
2023-03-07T23:23:54.438Z,5.37
2023-03-07T23:26:22.990Z,5.20
2023-03-07T23:28:49.687Z,4.80
2023-03-07T23:31:17.756Z,4.70
2023-03-07T23:33:44.736Z,4.43
2023-03-07T23:36:12.762Z,3.60
2023-03-07T23:38:40.747Z,4.33
2023-03-07T23:41:07.421Z,4.07
2023-03-07T23:43:34.068Z,3.70
2023-03-07T23:46:00.723Z,3.90
2023-03-07T23:48:27.316Z,3.50
2023-03-07T23:50:53.965Z,4.27
2023-03-07T23:53:20.594Z,3.90
2023-03-07T23:55:47.429Z,4.23
2023-03-07T23:58:14.123Z,4.53
